Terminal Aerodrome Forecast
Issued by NWS

Home | Current Version | Previous Version | Text Only | Print | Product List | Glossary On
Versions: 1 2 3 4 5 6 7 8 9 10 11 12 13 14 15 16 17 18 19 20 21 22 23 24 25 26 27 28 29 30 31 32 33 34 35 36
000
FTAK31 PAFA 242202 AAB
TAFAOR
TAF AMD
PAOR 242202Z 2422/2518 31008KT P6SM VCTS SCT010 BKN040CB OVC070
      TEMPO 2422/2424 2SM TSRA SCT009 BKN015CB
     FM250900 VRB04KT P6SM VCSH OVC050
     FM251500 VRB04KT P6SM BKN100=

USA.gov is the U.S. government's official web portal to all federal, state and local government web resources and services.